sensor_id;sensor_type;location;lat;lon;timestamp;temperature;humidity
13960;DHT22;7052;51.050;3.716;2023-03-12T00:00:07;6.10;99.90
13960;DHT22;7052;51.050;3.716;2023-03-12T00:02:36;6.10;99.90
13960;DHT22;7052;51.050;3.716;2023-03-12T00:05:06;6.10;99.90
13960;DHT22;7052;51.050;3.716;2023-03-12T00:07:33;6.00;99.90
13960;DHT22;7052;51.050;3.716;2023-03-12T00:10:02;6.00;99.90
13960;DHT22;7052;51.050;3.716;2023-03-12T00:12:29;6.00;99.90
13960;DHT22;7052;51.050;3.716;2023-03-12T00:14:56;5.90;99.90
13960;DHT22;7052;51.050;3.716;2023-03-12T00:17:24;5.90;99.90
13960;DHT22;7052;51.050;3.716;2023-03-12T00:19:52;5.90;99.90
13960;DHT22;7052;51.050;3.716;2023-03-12T00:22:23;5.90;99.90
13960;DHT22;7052;51.050;3.716;2023-03-12T00:24:50;6.10;99.90
13960;DHT22;7052;51.050;3.716;2023-03-12T00:27:18;6.00;99.90
13960;DHT22;7052;51.050;3.716;2023-03-12T00:29:44;5.90;99.90
13960;DHT22;7052;51.050;3.716;2023-03-12T00:32:14;5.90;99.90
13960;DHT22;7052;51.050;3.716;2023-03-12T00:34:41;6.00;99.90
13960;DHT22;7052;51.050;3.716;2023-03-12T00:37:10;5.90;99.90
13960;DHT22;7052;51.050;3.716;2023-03-12T00:39:38;5.90;99.90
13960;DHT22;7052;51.050;3.716;2023-03-12T00:42:05;5.90;99.90
13960;DHT22;7052;51.050;3.716;2023-03-12T00:44:34;5.80;99.90
13960;DHT22;7052;51.050;3.716;2023-03-12T00:47:01;5.80;99.90
13960;DHT22;7052;51.050;3.716;2023-03-12T00:49:29;5.80;99.90
13960;DHT22;7052;51.050;3.716;2023-03-12T00:51:57;5.80;99.90
13960;DHT22;7052;51.050;3.716;2023-03-12T00:54:24;5.70;99.90
13960;DHT22;7052;51.050;3.716;2023-03-12T00:56:53;5.70;99.90
13960;DHT22;7052;51.050;3.716;2023-03-12T00:59:20;5.60;99.90
13960;DHT22;7052;51.050;3.716;2023-03-12T01:01:47;5.60;99.90
13960;DHT22;7052;51.050;3.716;2023-03-12T01:04:16;5.50;99.90
13960;DHT22;7052;51.050;3.716;2023-03-12T01:06:47;5.50;99.90
13960;DHT22;7052;51.050;3.716;2023-03-12T01:09:14;5.50;99.90
13960;DHT22;7052;51.050;3.716;2023-03-12T01:11:41;5.50;99.90
13960;DHT22;7052;51.050;3.716;2023-03-12T01:14:10;5.50;99.90
13960;DHT22;7052;51.050;3.716;2023-03-12T01:16:36;5.50;99.90
13960;DHT22;7052;51.050;3.716;2023-03-12T01:19:05;5.50;99.90
13960;DHT22;7052;51.050;3.716;2023-03-12T01:21:32;5.50;99.90
13960;DHT22;7052;51.050;3.716;2023-03-12T01:23:59;5.40;99.90
13960;DHT22;7052;51.050;3.716;2023-03-12T01:26:26;5.40;99.90
13960;DHT22;7052;51.050;3.716;2023-03-12T01:28:54;5.40;99.90
13960;DHT22;7052;51.050;3.716;2023-03-12T01:31:24;5.40;99.90
13960;DHT22;7052;51.050;3.716;2023-03-12T01:33:52;5.50;99.90
13960;DHT22;7052;51.050;3.716;2023-03-12T01:36:22;5.50;99.90
13960;DHT22;7052;51.050;3.716;2023-03-12T01:38:50;5.50;99.90
13960;DHT22;7052;51.050;3.716;2023-03-12T01:41:18;5.50;99.90
13960;DHT22;7052;51.050;3.716;2023-03-12T01:43:46;5.50;99.90
13960;DHT22;7052;51.050;3.716;2023-03-12T01:46:25;5.50;99.90
13960;DHT22;7052;51.050;3.716;2023-03-12T01:48:56;5.50;99.90
13960;DHT22;7052;51.050;3.716;2023-03-12T01:51:27;5.50;99.90
13960;DHT22;7052;51.050;3.716;2023-03-12T01:53:58;5.60;99.90
13960;DHT22;7052;51.050;3.716;2023-03-12T01:56:29;5.50;99.90
13960;DHT22;7052;51.050;3.716;2023-03-12T01:58:59;5.50;99.90
13960;DHT22;7052;51.050;3.716;2023-03-12T02:01:30;5.50;99.90
13960;DHT22;7052;51.050;3.716;2023-03-12T02:03:59;5.50;99.90
13960;DHT22;7052;51.050;3.716;2023-03-12T02:06:32;5.50;99.90
13960;DHT22;7052;51.050;3.716;2023-03-12T02:09:05;5.50;99.90
13960;DHT22;7052;51.050;3.716;2023-03-12T02:11:32;5.50;99.90
13960;DHT22;7052;51.050;3.716;2023-03-12T02:14:00;5.40;99.90
13960;DHT22;7052;51.050;3.716;2023-03-12T02:16:29;5.30;99.90
13960;DHT22;7052;51.050;3.716;2023-03-12T02:18:59;5.30;99.90
13960;DHT22;7052;51.050;3.716;2023-03-12T02:21:29;5.30;99.90
13960;DHT22;7052;51.050;3.716;2023-03-12T02:24:02;5.20;99.90
13960;DHT22;7052;51.050;3.716;2023-03-12T02:26:37;5.30;99.90
13960;DHT22;7052;51.050;3.716;2023-03-12T02:29:06;5.30;99.90
13960;DHT22;7052;51.050;3.716;2023-03-12T02:31:39;5.30;99.90
13960;DHT22;7052;51.050;3.716;2023-03-12T02:34:15;5.30;99.90
13960;DHT22;7052;51.050;3.716;2023-03-12T02:36:43;5.20;99.90
13960;DHT22;7052;51.050;3.716;2023-03-12T02:39:10;5.20;99.90
13960;DHT22;7052;51.050;3.716;2023-03-12T02:41:41;5.10;99.90
13960;DHT22;7052;51.050;3.716;2023-03-12T02:44:15;5.20;99.90
13960;DHT22;7052;51.050;3.716;2023-03-12T02:46:45;5.20;99.90
13960;DHT22;7052;51.050;3.716;2023-03-12T02:49:12;5.20;99.90
13960;DHT22;7052;51.050;3.716;2023-03-12T02:51:41;5.20;99.90
13960;DHT22;7052;51.050;3.716;2023-03-12T02:54:11;5.20;99.90
13960;DHT22;7052;51.050;3.716;2023-03-12T02:56:40;5.20;99.90
13960;DHT22;7052;51.050;3.716;2023-03-12T02:59:08;5.30;99.90
13960;DHT22;7052;51.050;3.716;2023-03-12T03:01:36;5.30;99.90
13960;DHT22;7052;51.050;3.716;2023-03-12T03:04:09;5.30;99.90
13960;DHT22;7052;51.050;3.716;2023-03-12T03:06:37;5.30;99.90
13960;DHT22;7052;51.050;3.716;2023-03-12T03:09:08;5.30;99.90
13960;DHT22;7052;51.050;3.716;2023-03-12T03:11:35;5.30;99.90
13960;DHT22;7052;51.050;3.716;2023-03-12T03:14:16;5.40;99.90
13960;DHT22;7052;51.050;3.716;2023-03-12T03:16:46;5.30;99.90
13960;DHT22;7052;51.050;3.716;2023-03-12T03:19:13;5.20;99.90
13960;DHT22;7052;51.050;3.716;2023-03-12T03:21:40;5.30;99.90
13960;DHT22;7052;51.050;3.716;2023-03-12T03:24:08;5.30;99.90
13960;DHT22;7052;51.050;3.716;2023-03-12T03:26:38;5.30;99.90
13960;DHT22;7052;51.050;3.716;2023-03-12T03:29:07;5.30;99.90
13960;DHT22;7052;51.050;3.716;2023-03-12T03:31:34;5.30;99.90
13960;DHT22;7052;51.050;3.716;2023-03-12T03:34:02;5.30;99.90
13960;DHT22;7052;51.050;3.716;2023-03-12T03:36:29;5.30;99.90
13960;DHT22;7052;51.050;3.716;2023-03-12T03:38:56;5.30;99.90
13960;DHT22;7052;51.050;3.716;2023-03-12T03:41:23;5.30;99.90
13960;DHT22;7052;51.050;3.716;2023-03-12T03:43:50;5.30;99.90
13960;DHT22;7052;51.050;3.716;2023-03-12T03:46:19;5.30;99.90
13960;DHT22;7052;51.050;3.716;2023-03-12T03:48:46;5.40;99.90
13960;DHT22;7052;51.050;3.716;2023-03-12T03:51:13;5.40;99.90
13960;DHT22;7052;51.050;3.716;2023-03-12T03:53:40;5.40;99.90
13960;DHT22;7052;51.050;3.716;2023-03-12T03:56:09;5.30;99.90
13960;DHT22;7052;51.050;3.716;2023-03-12T03:58:38;5.40;99.90
13960;DHT22;7052;51.050;3.716;2023-03-12T04:01:05;5.30;99.90
13960;DHT22;7052;51.050;3.716;2023-03-12T04:03:34;5.30;99.90
13960;DHT22;7052;51.050;3.716;2023-03-12T04:06:05;5.40;99.90
13960;DHT22;7052;51.050;3.716;2023-03-12T04:08:32;5.40;99.90
13960;DHT22;7052;51.050;3.716;2023-03-12T04:11:05;5.40;99.90
13960;DHT22;7052;51.050;3.716;2023-03-12T04:13:41;5.40;99.90
13960;DHT22;7052;51.050;3.716;2023-03-12T04:16:09;5.40;99.90
13960;DHT22;7052;51.050;3.716;2023-03-12T04:18:38;5.40;99.90
13960;DHT22;7052;51.050;3.716;2023-03-12T04:21:07;5.40;99.90
13960;DHT22;7052;51.050;3.716;2023-03-12T04:23:35;5.50;99.90
13960;DHT22;7052;51.050;3.716;2023-03-12T04:26:04;5.40;99.90
13960;DHT22;7052;51.050;3.716;2023-03-12T04:28:32;5.50;99.90
13960;DHT22;7052;51.050;3.716;2023-03-12T04:31:00;5.50;99.90
13960;DHT22;7052;51.050;3.716;2023-03-12T04:33:29;5.50;99.90
13960;DHT22;7052;51.050;3.716;2023-03-12T04:35:58;5.50;99.90
13960;DHT22;7052;51.050;3.716;2023-03-12T04:38:28;5.50;99.90
13960;DHT22;7052;51.050;3.716;2023-03-12T04:40:59;5.60;99.90
13960;DHT22;7052;51.050;3.716;2023-03-12T04:43:28;5.50;99.90
13960;DHT22;7052;51.050;3.716;2023-03-12T04:45:56;5.50;99.90
13960;DHT22;7052;51.050;3.716;2023-03-12T04:48:25;5.60;99.90
13960;DHT22;7052;51.050;3.716;2023-03-12T04:50:52;5.60;99.90
13960;DHT22;7052;51.050;3.716;2023-03-12T04:53:30;5.60;99.90
13960;DHT22;7052;51.050;3.716;2023-03-12T04:55:57;5.60;99.90
13960;DHT22;7052;51.050;3.716;2023-03-12T04:58:25;5.60;99.90
13960;DHT22;7052;51.050;3.716;2023-03-12T05:00:52;5.60;99.90
13960;DHT22;7052;51.050;3.716;2023-03-12T05:03:20;5.60;99.90
13960;DHT22;7052;51.050;3.716;2023-03-12T05:05:49;5.60;99.90
13960;DHT22;7052;51.050;3.716;2023-03-12T05:08:17;5.70;99.90
13960;DHT22;7052;51.050;3.716;2023-03-12T05:10:46;5.70;99.90
13960;DHT22;7052;51.050;3.716;2023-03-12T05:13:14;5.70;99.90
13960;DHT22;7052;51.050;3.716;2023-03-12T05:15:44;5.70;99.90
13960;DHT22;7052;51.050;3.716;2023-03-12T05:18:12;5.80;99.90
13960;DHT22;7052;51.050;3.716;2023-03-12T05:20:39;5.80;99.90
13960;DHT22;7052;51.050;3.716;2023-03-12T05:23:06;5.80;99.90
13960;DHT22;7052;51.050;3.716;2023-03-12T05:25:36;5.80;99.90
13960;DHT22;7052;51.050;3.716;2023-03-12T05:28:05;5.80;99.90
13960;DHT22;7052;51.050;3.716;2023-03-12T05:30:33;5.90;99.90
13960;DHT22;7052;51.050;3.716;2023-03-12T05:33:00;5.90;99.90
13960;DHT22;7052;51.050;3.716;2023-03-12T05:35:27;5.90;99.90
13960;DHT22;7052;51.050;3.716;2023-03-12T05:37:54;5.90;99.90
13960;DHT22;7052;51.050;3.716;2023-03-12T05:40:23;5.90;99.90
13960;DHT22;7052;51.050;3.716;2023-03-12T05:42:50;5.90;99.90
13960;DHT22;7052;51.050;3.716;2023-03-12T05:45:24;5.90;99.90
13960;DHT22;7052;51.050;3.716;2023-03-12T05:47:54;5.90;99.90
13960;DHT22;7052;51.050;3.716;2023-03-12T05:50:24;5.80;99.90
13960;DHT22;7052;51.050;3.716;2023-03-12T05:52:51;5.90;99.90
13960;DHT22;7052;51.050;3.716;2023-03-12T05:55:18;6.00;99.90
13960;DHT22;7052;51.050;3.716;2023-03-12T05:57:46;6.00;99.90
13960;DHT22;7052;51.050;3.716;2023-03-12T06:00:13;6.00;99.90
13960;DHT22;7052;51.050;3.716;2023-03-12T06:02:44;6.10;99.90
13960;DHT22;7052;51.050;3.716;2023-03-12T06:05:11;6.10;99.90
13960;DHT22;7052;51.050;3.716;2023-03-12T06:07:39;6.20;99.90
13960;DHT22;7052;51.050;3.716;2023-03-12T06:10:06;6.30;99.90
13960;DHT22;7052;51.050;3.716;2023-03-12T06:12:37;6.20;99.90
13960;DHT22;7052;51.050;3.716;2023-03-12T06:15:05;6.30;99.90
13960;DHT22;7052;51.050;3.716;2023-03-12T06:17:32;6.30;99.90
13960;DHT22;7052;51.050;3.716;2023-03-12T06:20:01;6.30;99.90
13960;DHT22;7052;51.050;3.716;2023-03-12T06:22:30;6.40;99.90
13960;DHT22;7052;51.050;3.716;2023-03-12T06:24:56;6.50;99.90
13960;DHT22;7052;51.050;3.716;2023-03-12T06:27:23;6.50;99.90
13960;DHT22;7052;51.050;3.716;2023-03-12T06:29:50;6.60;99.90
13960;DHT22;7052;51.050;3.716;2023-03-12T06:32:17;6.70;99.90
13960;DHT22;7052;51.050;3.716;2023-03-12T06:34:44;6.70;99.90
13960;DHT22;7052;51.050;3.716;2023-03-12T06:37:14;6.70;99.90
13960;DHT22;7052;51.050;3.716;2023-03-12T06:39:41;6.80;99.90
13960;DHT22;7052;51.050;3.716;2023-03-12T06:42:08;6.80;99.90
13960;DHT22;7052;51.050;3.716;2023-03-12T06:44:37;6.90;99.90
13960;DHT22;7052;51.050;3.716;2023-03-12T06:47:04;7.00;99.90
13960;DHT22;7052;51.050;3.716;2023-03-12T06:49:33;7.00;99.90
13960;DHT22;7052;51.050;3.716;2023-03-12T06:52:00;7.10;99.90
13960;DHT22;7052;51.050;3.716;2023-03-12T06:54:32;7.10;99.90
13960;DHT22;7052;51.050;3.716;2023-03-12T06:57:00;7.20;99.90
13960;DHT22;7052;51.050;3.716;2023-03-12T06:59:27;7.20;99.90
13960;DHT22;7052;51.050;3.716;2023-03-12T07:01:54;7.30;99.90
13960;DHT22;7052;51.050;3.716;2023-03-12T07:04:23;7.30;99.90
13960;DHT22;7052;51.050;3.716;2023-03-12T07:06:50;7.30;99.90
13960;DHT22;7052;51.050;3.716;2023-03-12T07:09:17;7.40;99.90
13960;DHT22;7052;51.050;3.716;2023-03-12T07:11:51;7.40;99.90
13960;DHT22;7052;51.050;3.716;2023-03-12T07:14:18;7.50;99.90
13960;DHT22;7052;51.050;3.716;2023-03-12T07:16:45;7.50;99.90
13960;DHT22;7052;51.050;3.716;2023-03-12T07:19:13;7.60;99.90
13960;DHT22;7052;51.050;3.716;2023-03-12T07:21:40;7.60;99.90
13960;DHT22;7052;51.050;3.716;2023-03-12T07:24:07;7.70;99.90
13960;DHT22;7052;51.050;3.716;2023-03-12T07:26:34;7.80;99.90
13960;DHT22;7052;51.050;3.716;2023-03-12T07:29:03;7.80;99.90
13960;DHT22;7052;51.050;3.716;2023-03-12T07:31:30;7.90;99.90
13960;DHT22;7052;51.050;3.716;2023-03-12T07:33:57;8.00;99.90
13960;DHT22;7052;51.050;3.716;2023-03-12T07:36:24;8.10;99.90
13960;DHT22;7052;51.050;3.716;2023-03-12T07:38:51;8.20;99.90
13960;DHT22;7052;51.050;3.716;2023-03-12T07:41:18;8.30;99.90
13960;DHT22;7052;51.050;3.716;2023-03-12T07:43:45;8.40;99.90
13960;DHT22;7052;51.050;3.716;2023-03-12T07:46:14;8.50;99.90
13960;DHT22;7052;51.050;3.716;2023-03-12T07:48:42;8.50;99.90
13960;DHT22;7052;51.050;3.716;2023-03-12T07:51:10;8.50;99.90
13960;DHT22;7052;51.050;3.716;2023-03-12T07:53:37;8.60;99.90
13960;DHT22;7052;51.050;3.716;2023-03-12T07:56:05;8.70;99.90
13960;DHT22;7052;51.050;3.716;2023-03-12T07:58:32;8.70;99.90
13960;DHT22;7052;51.050;3.716;2023-03-12T08:01:01;8.80;99.90
13960;DHT22;7052;51.050;3.716;2023-03-12T08:03:32;8.90;99.90
13960;DHT22;7052;51.050;3.716;2023-03-12T08:06:01;8.80;99.90
13960;DHT22;7052;51.050;3.716;2023-03-12T08:08:32;9.00;99.90
13960;DHT22;7052;51.050;3.716;2023-03-12T08:11:04;9.10;99.90
13960;DHT22;7052;51.050;3.716;2023-03-12T08:13:33;9.20;99.90
13960;DHT22;7052;51.050;3.716;2023-03-12T08:16:05;9.40;99.90
13960;DHT22;7052;51.050;3.716;2023-03-12T08:18:33;9.40;99.90
13960;DHT22;7052;51.050;3.716;2023-03-12T08:21:01;9.50;99.90
13960;DHT22;7052;51.050;3.716;2023-03-12T08:23:30;9.50;99.90
13960;DHT22;7052;51.050;3.716;2023-03-12T08:25:58;9.50;99.90
13960;DHT22;7052;51.050;3.716;2023-03-12T08:28:25;9.70;99.90
13960;DHT22;7052;51.050;3.716;2023-03-12T08:30:54;9.70;99.90
13960;DHT22;7052;51.050;3.716;2023-03-12T08:33:23;9.90;99.90
13960;DHT22;7052;51.050;3.716;2023-03-12T08:35:53;9.90;99.90
13960;DHT22;7052;51.050;3.716;2023-03-12T08:38:20;10.00;99.90
13960;DHT22;7052;51.050;3.716;2023-03-12T08:40:54;10.20;99.90
13960;DHT22;7052;51.050;3.716;2023-03-12T08:43:21;10.30;99.90
13960;DHT22;7052;51.050;3.716;2023-03-12T08:45:52;10.20;99.90
13960;DHT22;7052;51.050;3.716;2023-03-12T08:48:20;10.30;99.90
13960;DHT22;7052;51.050;3.716;2023-03-12T08:50:47;10.50;99.90
13960;DHT22;7052;51.050;3.716;2023-03-12T08:53:15;10.50;99.90
13960;DHT22;7052;51.050;3.716;2023-03-12T08:55:55;10.50;99.90
13960;DHT22;7052;51.050;3.716;2023-03-12T08:58:23;10.50;99.90
13960;DHT22;7052;51.050;3.716;2023-03-12T09:00:51;10.60;99.90
13960;DHT22;7052;51.050;3.716;2023-03-12T09:03:18;10.50;99.90
13960;DHT22;7052;51.050;3.716;2023-03-12T09:05:47;10.50;99.90
13960;DHT22;7052;51.050;3.716;2023-03-12T09:08:16;10.60;99.90
13960;DHT22;7052;51.050;3.716;2023-03-12T09:10:47;10.60;99.90
13960;DHT22;7052;51.050;3.716;2023-03-12T09:13:16;10.70;99.90
13960;DHT22;7052;51.050;3.716;2023-03-12T09:15:43;10.70;99.90
13960;DHT22;7052;51.050;3.716;2023-03-12T09:18:11;10.80;99.90
13960;DHT22;7052;51.050;3.716;2023-03-12T09:20:42;10.80;99.90
13960;DHT22;7052;51.050;3.716;2023-03-12T09:23:09;10.90;99.90
13960;DHT22;7052;51.050;3.716;2023-03-12T09:25:38;10.90;99.90
13960;DHT22;7052;51.050;3.716;2023-03-12T09:28:05;11.10;99.90
13960;DHT22;7052;51.050;3.716;2023-03-12T09:30:32;11.20;99.90
13960;DHT22;7052;51.050;3.716;2023-03-12T09:32:59;11.30;99.90
13960;DHT22;7052;51.050;3.716;2023-03-12T09:35:27;11.30;99.90
13960;DHT22;7052;51.050;3.716;2023-03-12T09:37:55;11.40;99.90
13960;DHT22;7052;51.050;3.716;2023-03-12T09:40:26;11.40;99.90
13960;DHT22;7052;51.050;3.716;2023-03-12T09:43:02;11.40;99.90
13960;DHT22;7052;51.050;3.716;2023-03-12T09:45:33;11.40;99.90
13960;DHT22;7052;51.050;3.716;2023-03-12T09:48:06;11.40;99.90
13960;DHT22;7052;51.050;3.716;2023-03-12T09:50:39;11.40;99.90
13960;DHT22;7052;51.050;3.716;2023-03-12T09:53:12;11.50;99.90
13960;DHT22;7052;51.050;3.716;2023-03-12T09:55:43;11.60;99.90
13960;DHT22;7052;51.050;3.716;2023-03-12T09:58:21;11.70;99.90
13960;DHT22;7052;51.050;3.716;2023-03-12T10:00:50;11.80;99.90
13960;DHT22;7052;51.050;3.716;2023-03-12T10:03:32;11.90;99.90
13960;DHT22;7052;51.050;3.716;2023-03-12T10:06:08;11.80;99.90
13960;DHT22;7052;51.050;3.716;2023-03-12T10:08:55;11.80;99.90
13960;DHT22;7052;51.050;3.716;2023-03-12T10:11:34;11.90;99.90
13960;DHT22;7052;51.050;3.716;2023-03-12T10:14:19;12.10;99.90
13960;DHT22;7052;51.050;3.716;2023-03-12T10:17:00;12.10;99.90
13960;DHT22;7052;51.050;3.716;2023-03-12T10:19:39;12.20;99.90
13960;DHT22;7052;51.050;3.716;2023-03-12T10:22:18;12.30;99.90
13960;DHT22;7052;51.050;3.716;2023-03-12T10:24:56;12.40;99.90
13960;DHT22;7052;51.050;3.716;2023-03-12T10:27:27;12.40;99.90
13960;DHT22;7052;51.050;3.716;2023-03-12T10:29:58;12.50;99.90
13960;DHT22;7052;51.050;3.716;2023-03-12T10:32:31;12.60;99.90
13960;DHT22;7052;51.050;3.716;2023-03-12T10:35:13;12.60;99.90
13960;DHT22;7052;51.050;3.716;2023-03-12T10:37:43;12.60;99.90
13960;DHT22;7052;51.050;3.716;2023-03-12T10:40:14;12.80;99.90
13960;DHT22;7052;51.050;3.716;2023-03-12T10:42:41;12.90;99.90
13960;DHT22;7052;51.050;3.716;2023-03-12T10:45:29;13.00;99.90
13960;DHT22;7052;51.050;3.716;2023-03-12T10:48:02;13.00;99.90
13960;DHT22;7052;51.050;3.716;2023-03-12T10:50:32;13.00;99.90
13960;DHT22;7052;51.050;3.716;2023-03-12T10:53:19;13.00;99.90
13960;DHT22;7052;51.050;3.716;2023-03-12T10:56:03;13.10;99.90
13960;DHT22;7052;51.050;3.716;2023-03-12T10:58:36;13.10;99.90
13960;DHT22;7052;51.050;3.716;2023-03-12T11:01:20;13.00;99.90
13960;DHT22;7052;51.050;3.716;2023-03-12T11:03:50;13.00;99.90
13960;DHT22;7052;51.050;3.716;2023-03-12T11:06:23;13.00;99.90
13960;DHT22;7052;51.050;3.716;2023-03-12T11:09:04;12.90;99.90
13960;DHT22;7052;51.050;3.716;2023-03-12T11:11:33;13.00;99.90
13960;DHT22;7052;51.050;3.716;2023-03-12T11:14:07;13.00;99.90
13960;DHT22;7052;51.050;3.716;2023-03-12T11:16:42;12.90;99.90
13960;DHT22;7052;51.050;3.716;2023-03-12T11:19:12;12.90;99.90
13960;DHT22;7052;51.050;3.716;2023-03-12T11:21:54;12.90;99.90
13960;DHT22;7052;51.050;3.716;2023-03-12T11:24:25;13.00;99.90
13960;DHT22;7052;51.050;3.716;2023-03-12T11:26:58;13.00;99.90
13960;DHT22;7052;51.050;3.716;2023-03-12T11:29:28;13.00;99.90
13960;DHT22;7052;51.050;3.716;2023-03-12T11:32:03;12.90;99.90
13960;DHT22;7052;51.050;3.716;2023-03-12T11:34:33;12.80;99.90
13960;DHT22;7052;51.050;3.716;2023-03-12T11:37:10;12.90;99.90
13960;DHT22;7052;51.050;3.716;2023-03-12T11:39:50;12.70;99.90
13960;DHT22;7052;51.050;3.716;2023-03-12T11:42:31;12.60;99.90
13960;DHT22;7052;51.050;3.716;2023-03-12T11:45:06;12.70;99.90
13960;DHT22;7052;51.050;3.716;2023-03-12T11:47:59;12.70;99.90
13960;DHT22;7052;51.050;3.716;2023-03-12T11:50:39;12.90;99.90
13960;DHT22;7052;51.050;3.716;2023-03-12T11:53:22;13.00;99.90
13960;DHT22;7052;51.050;3.716;2023-03-12T11:55:57;13.10;99.90
13960;DHT22;7052;51.050;3.716;2023-03-12T11:58:38;13.20;99.90
13960;DHT22;7052;51.050;3.716;2023-03-12T12:01:19;13.30;99.90
13960;DHT22;7052;51.050;3.716;2023-03-12T12:04:03;13.30;99.90
13960;DHT22;7052;51.050;3.716;2023-03-12T12:06:44;13.40;99.90
13960;DHT22;7052;51.050;3.716;2023-03-12T12:09:23;13.40;99.90
13960;DHT22;7052;51.050;3.716;2023-03-12T12:12:10;13.30;99.90
13960;DHT22;7052;51.050;3.716;2023-03-12T12:14:52;13.40;99.90
13960;DHT22;7052;51.050;3.716;2023-03-12T12:17:34;13.40;99.90
13960;DHT22;7052;51.050;3.716;2023-03-12T12:20:16;13.30;99.90
13960;DHT22;7052;51.050;3.716;2023-03-12T12:22:56;13.20;99.90
13960;DHT22;7052;51.050;3.716;2023-03-12T12:25:37;13.20;99.90
13960;DHT22;7052;51.050;3.716;2023-03-12T12:31:21;13.10;99.90
13960;DHT22;7052;51.050;3.716;2023-03-12T12:34:10;13.20;99.90
13960;DHT22;7052;51.050;3.716;2023-03-12T12:36:47;13.20;99.90
13960;DHT22;7052;51.050;3.716;2023-03-12T12:39:18;13.20;99.90
13960;DHT22;7052;51.050;3.716;2023-03-12T12:41:50;13.30;99.90
13960;DHT22;7052;51.050;3.716;2023-03-12T12:44:22;13.30;99.90
13960;DHT22;7052;51.050;3.716;2023-03-12T12:46:54;13.30;99.90
13960;DHT22;7052;51.050;3.716;2023-03-12T12:49:28;13.30;99.90
13960;DHT22;7052;51.050;3.716;2023-03-12T12:52:00;13.20;99.90
13960;DHT22;7052;51.050;3.716;2023-03-12T12:54:33;13.30;99.90
13960;DHT22;7052;51.050;3.716;2023-03-12T12:57:06;13.30;99.90
13960;DHT22;7052;51.050;3.716;2023-03-12T12:59:40;13.30;99.90
13960;DHT22;7052;51.050;3.716;2023-03-12T13:02:16;13.30;99.90
13960;DHT22;7052;51.050;3.716;2023-03-12T13:04:45;13.30;99.90
13960;DHT22;7052;51.050;3.716;2023-03-12T13:07:32;13.40;99.90
13960;DHT22;7052;51.050;3.716;2023-03-12T13:10:06;13.40;99.90
13960;DHT22;7052;51.050;3.716;2023-03-12T13:12:41;13.40;99.90
13960;DHT22;7052;51.050;3.716;2023-03-12T13:15:32;13.40;99.90
13960;DHT22;7052;51.050;3.716;2023-03-12T13:18:04;13.50;99.90
13960;DHT22;7052;51.050;3.716;2023-03-12T13:20:43;13.50;99.90
13960;DHT22;7052;51.050;3.716;2023-03-12T13:23:31;13.60;99.90
13960;DHT22;7052;51.050;3.716;2023-03-12T13:26:06;13.70;99.90
13960;DHT22;7052;51.050;3.716;2023-03-12T13:28:54;13.70;99.90
13960;DHT22;7052;51.050;3.716;2023-03-12T13:31:36;13.70;99.90
13960;DHT22;7052;51.050;3.716;2023-03-12T13:34:41;13.70;99.90
13960;DHT22;7052;51.050;3.716;2023-03-12T13:40:39;13.60;99.90
13960;DHT22;7052;51.050;3.716;2023-03-12T13:43:49;13.50;99.90
13960;DHT22;7052;51.050;3.716;2023-03-12T13:46:38;13.50;99.90
13960;DHT22;7052;51.050;3.716;2023-03-12T13:49:13;13.50;99.90
13960;DHT22;7052;51.050;3.716;2023-03-12T13:51:52;13.50;99.90
13960;DHT22;7052;51.050;3.716;2023-03-12T13:54:23;13.40;99.90
13960;DHT22;7052;51.050;3.716;2023-03-12T13:57:02;13.30;99.90
13960;DHT22;7052;51.050;3.716;2023-03-12T13:59:32;13.20;99.90
13960;DHT22;7052;51.050;3.716;2023-03-12T14:02:20;13.30;99.90
13960;DHT22;7052;51.050;3.716;2023-03-12T14:04:48;13.30;99.90
13960;DHT22;7052;51.050;3.716;2023-03-12T14:07:29;13.30;99.90
13960;DHT22;7052;51.050;3.716;2023-03-12T14:10:07;13.40;99.90
13960;DHT22;7052;51.050;3.716;2023-03-12T14:12:43;13.40;99.90
13960;DHT22;7052;51.050;3.716;2023-03-12T14:15:28;13.40;99.90
13960;DHT22;7052;51.050;3.716;2023-03-12T14:18:01;13.50;99.90
13960;DHT22;7052;51.050;3.716;2023-03-12T14:20:36;13.50;99.90
13960;DHT22;7052;51.050;3.716;2023-03-12T14:23:07;13.50;99.90
13960;DHT22;7052;51.050;3.716;2023-03-12T14:25:39;13.40;99.90
13960;DHT22;7052;51.050;3.716;2023-03-12T14:28:15;13.30;99.90
13960;DHT22;7052;51.050;3.716;2023-03-12T14:30:49;13.30;99.90
13960;DHT22;7052;51.050;3.716;2023-03-12T14:33:20;13.10;99.90
13960;DHT22;7052;51.050;3.716;2023-03-12T14:35:52;13.10;99.90
13960;DHT22;7052;51.050;3.716;2023-03-12T14:38:25;13.00;99.90
13960;DHT22;7052;51.050;3.716;2023-03-12T14:41:00;12.90;99.90
13960;DHT22;7052;51.050;3.716;2023-03-12T14:43:32;12.80;99.90
13960;DHT22;7052;51.050;3.716;2023-03-12T14:46:02;12.80;99.90
13960;DHT22;7052;51.050;3.716;2023-03-12T14:48:31;12.80;99.90
13960;DHT22;7052;51.050;3.716;2023-03-12T14:51:02;12.80;99.90
13960;DHT22;7052;51.050;3.716;2023-03-12T14:53:35;12.70;99.90
13960;DHT22;7052;51.050;3.716;2023-03-12T14:56:04;12.70;99.90
13960;DHT22;7052;51.050;3.716;2023-03-12T14:58:40;12.80;99.90
13960;DHT22;7052;51.050;3.716;2023-03-12T15:01:13;12.80;99.90
13960;DHT22;7052;51.050;3.716;2023-03-12T15:03:42;12.80;99.90
13960;DHT22;7052;51.050;3.716;2023-03-12T15:06:16;12.70;99.90
13960;DHT22;7052;51.050;3.716;2023-03-12T15:08:45;12.70;99.90
13960;DHT22;7052;51.050;3.716;2023-03-12T15:11:19;12.80;99.90
13960;DHT22;7052;51.050;3.716;2023-03-12T15:13:51;12.80;99.90
13960;DHT22;7052;51.050;3.716;2023-03-12T15:16:19;12.70;99.90
13960;DHT22;7052;51.050;3.716;2023-03-12T15:18:50;12.80;99.90
13960;DHT22;7052;51.050;3.716;2023-03-12T15:21:18;12.80;99.90
13960;DHT22;7052;51.050;3.716;2023-03-12T15:23:48;12.70;99.90
13960;DHT22;7052;51.050;3.716;2023-03-12T15:26:26;12.60;99.90
13960;DHT22;7052;51.050;3.716;2023-03-12T15:28:58;12.70;99.90
13960;DHT22;7052;51.050;3.716;2023-03-12T15:31:25;12.60;99.90
13960;DHT22;7052;51.050;3.716;2023-03-12T15:34:01;12.60;99.90
13960;DHT22;7052;51.050;3.716;2023-03-12T15:36:33;12.50;99.90
13960;DHT22;7052;51.050;3.716;2023-03-12T15:39:03;12.60;99.90
13960;DHT22;7052;51.050;3.716;2023-03-12T15:41:42;12.50;99.90
13960;DHT22;7052;51.050;3.716;2023-03-12T15:44:19;12.60;99.90
13960;DHT22;7052;51.050;3.716;2023-03-12T15:46:52;12.60;99.90
13960;DHT22;7052;51.050;3.716;2023-03-12T15:49:37;12.50;99.90
13960;DHT22;7052;51.050;3.716;2023-03-12T15:52:25;12.50;99.90
13960;DHT22;7052;51.050;3.716;2023-03-12T15:55:00;12.50;99.90
13960;DHT22;7052;51.050;3.716;2023-03-12T15:57:44;12.40;99.90
13960;DHT22;7052;51.050;3.716;2023-03-12T16:00:22;12.30;99.90
13960;DHT22;7052;51.050;3.716;2023-03-12T16:02:52;12.20;99.90
13960;DHT22;7052;51.050;3.716;2023-03-12T16:05:20;12.20;99.90
13960;DHT22;7052;51.050;3.716;2023-03-12T16:07:48;12.10;99.90
13960;DHT22;7052;51.050;3.716;2023-03-12T16:10:18;12.00;99.90
13960;DHT22;7052;51.050;3.716;2023-03-12T16:12:48;12.10;99.90
13960;DHT22;7052;51.050;3.716;2023-03-12T16:15:29;12.00;99.90
13960;DHT22;7052;51.050;3.716;2023-03-12T16:17:57;12.00;99.90
13960;DHT22;7052;51.050;3.716;2023-03-12T16:20:28;11.90;99.90
13960;DHT22;7052;51.050;3.716;2023-03-12T16:22:55;11.90;99.90
13960;DHT22;7052;51.050;3.716;2023-03-12T16:25:23;11.80;99.90
13960;DHT22;7052;51.050;3.716;2023-03-12T16:27:53;11.90;99.90